Flight Track Log - Related Links

Times and Time Zones

All times are in EDT time to prevent confusion due to time zone crossing. See the C-GYFB flight status page for this flight to view local times or setup timezone preferences in your user account.

Time Position Orientation Groundspeed Altitude Reporting Facility
EDT Latitude Longitude Course Direction KTS MPH feet Rate Location/Type
Sat 06:08:25 PM 45.2833 -75.7000 11° North 160 184 1,500  Level Montreal Center
Sat 06:09:25 PM 45.2500 -75.7500 227° Southwest 200 230 4,200 2,500 Climbing Montreal Center
Sat 06:10:25 PM 45.3000 -75.8500 305° West 240 276 6,500 2,450 Climbing Montreal Center
Sat 06:11:25 PM 45.3833 -75.8667 352° North 290 334 9,100 2,600 Climbing Montreal Center
Sat 06:12:25 PM 45.4667 -75.8667 360° North 300 345 11,700 2,550 Climbing Montreal Center
Sat 06:13:00 PM 45.9499 -76.0119 11° North  Level FlightAware Approximate
Sat 06:13:25 PM 45.5500 -75.8500 North 310 357 14,200  Level Montreal Center
Sat 06:14:25 PM 45.6500 -75.8167 13° North 320 368 16,700 2,250 Climbing Montreal Center
Sat 06:15:25 PM 45.7333 -75.8000 North 320 368 18,700 1,800 Climbing Montreal Center
Sat 06:16:25 PM 45.8167 -75.7833 North 340 391 20,300 1,550 Climbing Montreal Center
Sat 06:17:25 PM 45.9167 -75.7500 13° North 350 403 21,800 1,600 Climbing Montreal Center
Sat 06:18:25 PM 46.0167 -75.7333 North 360 414 23,500 1,550 Climbing Montreal Center
Sat 06:19:25 PM 46.1167 -75.7000 13° North 360 414 24,900 1,250 Climbing Montreal Center
Sat 06:20:25 PM 46.2167 -75.6833 North 370 426 26,000 1,150 Climbing Montreal Center
Sat 06:21:25 PM 46.3167 -75.6500 13° North 380 437 27,200 1,100 Climbing Montreal Center
Sat 06:22:25 PM 46.4167 -75.6333 North 380 437 28,200 1,100 Climbing Montreal Center
Sat 06:23:25 PM 46.5333 -75.5833 16° North 380 437 29,400 950 Climbing Montreal Center
Sat 06:24:25 PM 46.6333 -75.5500 13° North 390 449 30,100 850 Climbing Montreal Center
Sat 06:25:25 PM 46.7333 -75.5333 North 390 449 31,100 950 Climbing Montreal Center
Sat 06:26:25 PM 46.8500 -75.5000 11° North 390 449 32,000 850 Climbing Montreal Center
Sat 06:27:25 PM 46.9500 -75.4833 North 390 449 32,800 900 Climbing Montreal Center
Sat 06:28:25 PM 47.0667 -75.4500 11° North 390 449 33,800 800 Climbing Montreal Center
Sat 06:29:25 PM 47.1667 -75.4167 13° North 390 449 34,400 500 Climbing Montreal Center
Sat 06:30:25 PM 47.2833 -75.3667 16° North 390 449 34,800 300 Climbing Montreal Center
Sat 06:31:25 PM 47.3833 -75.3500 North 400 460 35,000 100 Climbing Montreal Center
Sat 06:32:25 PM 47.5000 -75.3167 11° North 400 460 35,000  Level Montreal Center
Sat 06:33:25 PM 47.6167 -75.3000 North 420 483 35,000  Level Montreal Center
Sat 06:34:25 PM 47.7167 -75.2667 13° North 420 483 35,000  Level Montreal Center
Sat 06:35:25 PM 47.8500 -75.2167 14° North 430 495 35,000  Level Montreal Center
Sat 06:36:25 PM 47.9667 -75.1833 11° North 430 495 35,000  Level Montreal Center
Sat 06:37:25 PM 48.0833 -75.1667 North 430 495 35,000  Level Montreal Center
Sat 06:38:25 PM 48.2000 -75.1333 11° North 430 495 35,000  Level Montreal Center
Sat 06:39:25 PM 48.3167 -75.0833 16° North 430 495 35,000  Level Montreal Center
Sat 06:40:25 PM 48.4333 -75.0500 11° North 430 495 35,000  Level Montreal Center
Sat 06:41:25 PM 48.5667 -75.0333 North 430 495 35,000  Level Montreal Center
Sat 06:42:25 PM 48.6833 -75.0000 11° North 430 495 35,000  Level Montreal Center
Sat 06:43:25 PM 48.8000 -74.9500 16° North 430 495 35,000  Level Montreal Center
Sat 06:44:25 PM 48.9167 -74.9167 11° North 430 495 35,000  Level Montreal Center
Sat 06:45:25 PM 49.0333 -74.8833 11° North 430 495 35,000  Level Montreal Center
Sat 06:46:25 PM 49.1667 -74.8333 14° North 430 495 35,000  Level Montreal Center
Sat 06:47:25 PM 49.2667 -74.8000 12° North 430 495 35,000  Level Montreal Center
Sat 06:48:25 PM 49.3833 -74.7833 North 430 495 35,000  Level Montreal Center
Sat 06:49:25 PM 49.5167 -74.7500 North 430 495 35,000  Level Montreal Center
Sat 06:50:25 PM 49.6167 -74.7000 18° North 430 495 35,000  Level Montreal Center
Sat 06:51:25 PM 49.7500 -74.6667 North 430 495 35,000  Level Montreal Center
Sat 06:52:25 PM 49.8667 -74.6333 10° North 430 495 35,000  Level Montreal Center
Sat 06:53:25 PM 49.9833 -74.6000 10° North 430 495 35,000  Level Montreal Center
Sat 06:54:25 PM 50.1000 -74.5500 15° North 430 495 35,000  Level Montreal Center
Sat 06:55:25 PM 50.2167 -74.5167 10° North 430 495 35,000  Level Montreal Center
Sat 06:56:25 PM 50.3333 -74.4833 10° North 430 495 35,000  Level Montreal Center
Sat 06:57:25 PM 50.4500 -74.4667 North 430 495 35,000  Level Montreal Center
Sat 06:58:25 PM 50.5667 -74.4000 20° North 430 495 35,000  Level Montreal Center
Sat 06:59:25 PM 50.6833 -74.3667 10° North 430 495 35,000  Level Montreal Center
Sat 07:00:25 PM 50.8000 -74.3333 10° North 430 495 35,000  Level Montreal Center
Sat 07:01:25 PM 50.9333 -74.3167 North 440 506 35,000  Level Montreal Center
Sat 07:02:25 PM 51.0500 -74.2500 20° North 440 506 35,000  Level Montreal Center
Sat 07:03:25 PM 51.1667 -74.2167 10° North 440 506 35,000 100 Level Montreal Center
Sat 07:04:25 PM 51.2833 -74.1833 10° North 440 506 35,200 450 Climbing Montreal Center
Sat 07:05:25 PM 51.4000 -74.1500 10° North 430 495 35,900 600 Climbing Montreal Center
Sat 07:06:25 PM 51.5167 -74.1000 15° North 420 483 36,400 350 Climbing Montreal Center
Sat 07:07:25 PM 51.6333 -74.0667 10° North 430 495 36,600 250 Climbing Montreal Center
Sat 07:08:25 PM 51.7667 -74.0333 North 430 495 36,900 200 Climbing Montreal Center
Sat 07:09:25 PM 51.8833 -74.0000 10° North 430 495 37,000 50 Climbing Montreal Center
Sat 07:10:25 PM 52.0167 -73.9333 17° North 440 506 37,000  Level Montreal Center
Sat 07:11:25 PM 52.1333 -73.9000 10° North 440 506 37,000  Level Montreal Center
Sat 07:12:25 PM 52.2500 -73.8667 10° North 450 518 37,000  Level Montreal Center
Sat 07:13:25 PM 52.3667 -73.8167 15° North 450 518 37,000  Level Montreal Center
Sat 07:14:25 PM 52.5000 -73.7833 North 450 518 37,000  Level Montreal Center
Sat 07:15:25 PM 52.6333 -73.7500 North 450 518 37,000  Level Montreal Center
Sat 07:16:25 PM 52.7500 -73.7167 10° North 450 518 37,000  Level Montreal Center
Sat 07:17:25 PM 52.8667 -73.6500 19° North 450 518 37,000  Level Montreal Center
Sat 07:18:25 PM 53.0000 -73.6167 North 460 529 37,000  Level Montreal Center
Sat 07:19:25 PM 53.1167 -73.5833 10° North 450 518 37,000  Level Montreal Center
Sat 07:20:25 PM 53.2500 -73.5167 17° North 450 518 37,000  Level Montreal Center
Sat 07:21:25 PM 53.3667 -73.4833 10° North 460 529 37,000  Level Montreal Center
Sat 07:22:25 PM 53.4833 -73.4500 10° North 460 529 37,000  Level Montreal Center
Sat 07:23:25 PM 53.6167 -73.3833 17° North 460 529 37,000  Level Montreal Center
Sat 07:24:25 PM 53.7500 -73.3500 North 460 529 37,000  Level Montreal Center
Sat 07:25:25 PM 53.8667 -73.3000 14° North 460 529 37,000  Level Montreal Center
Sat 07:26:25 PM 54.0000 -73.2500 12° North 460 529 37,000  Level Montreal Center
Sat 07:27:25 PM 54.1333 -73.2000 12° North 460 529 37,000  Level Montreal Center
Sat 07:28:25 PM 54.2500 -73.1333 18° North 460 529 37,000  Level Montreal Center
Sat 07:29:25 PM 54.3833 -73.1000 North 460 529 37,000  Level Montreal Center
Sat 07:30:25 PM 54.5000 -73.0667 North 460 529 37,000  Level Montreal Center
Sat 07:31:25 PM 54.6333 -73.0000 16° North 460 529 37,000  Level Montreal Center
Sat 07:32:25 PM 54.7667 -72.9500 12° North 460 529 37,000  Level Montreal Center
Sat 07:33:25 PM 54.8833 -72.9167 North 460 529 37,000  Level Montreal Center
Sat 07:34:25 PM 55.0167 -72.8500 16° North 460 529 37,000  Level Montreal Center
Sat 07:35:25 PM 55.1333 -72.8167 North 460 529 37,000  Level Montreal Center
Sat 07:36:25 PM 55.2667 -72.7667 12° North 460 529 37,000  Level Montreal Center
Sat 07:37:25 PM 55.3833 -72.7000 18° North 460 529 37,000  Level Montreal Center
Sat 07:38:25 PM 55.5167 -72.6667 North 460 529 37,000  Level Montreal Center
Sat 07:39:25 PM 55.6333 -72.6167 14° North 470 541 37,000  Level Montreal Center
Sat 07:40:25 PM 55.7667 -72.5500 16° North 460 529 37,000  Level Montreal Center
Sat 07:41:25 PM 55.9000 -72.5167 North 460 529 37,000  Level Montreal Center
Sat 07:42:25 PM 56.0333 -72.4667 12° North 460 529 37,000  Level Montreal Center
Sat 07:43:25 PM 56.1500 -72.4000 18° North 460 529 37,000  Level Montreal Center
Sat 07:44:25 PM 56.2833 -72.3500 12° North 470 541 37,000  Level Montreal Center
Sat 07:45:25 PM 56.4000 -72.3167 North 470 541 37,000  Level Montreal Center
Sat 07:46:25 PM 56.5333 -72.2667 12° North 460 529 37,000  Level Montreal Center
Sat 07:47:25 PM 56.6667 -72.2000 15° North 460 529 37,000  Level Montreal Center
Sat 07:48:25 PM 56.7833 -72.1500 13° North 460 529 37,000  Level Montreal Center
Sat 07:49:25 PM 56.9167 -72.0833 15° North 470 541 37,000  Level Montreal Center
Sat 07:50:25 PM 57.0500 -72.0333 12° North 460 529 37,000  Level Montreal Center
Sat 07:51:25 PM 57.1667 -71.9833 13° North 460 529 37,000  Level Montreal Center
Sat 07:52:25 PM 57.3000 -71.9167 15° North 460 529 37,000  Level Montreal Center
Sat 07:53:25 PM 57.4167 -71.8667 13° North 460 529 37,000  Level Montreal Center
Sat 07:54:25 PM 57.5500 -71.8167 11° North 460 529 37,000  Level Montreal Center
Sat 07:55:25 PM 57.6667 -71.7500 17° North 460 529 37,000  Level Montreal Center
Sat 07:56:25 PM 57.8000 -71.7000 11° North 460 529 37,000  Level Montreal Center
Sat 07:57:25 PM 57.9167 -71.6500 13° North 460 529 37,000  Level Montreal Center
Sat 07:58:25 PM 58.0500 -71.5667 18° North 460 529 37,000  Level Montreal Center
Sat 07:59:25 PM 58.1667 -71.5333 North 460 529 37,000  Level Montreal Center
Sat 08:00:25 PM 58.3000 -71.4833 11° North 470 541 37,000  Level Montreal Center
Sat 08:01:25 PM 58.4167 -71.4000 21° North 470 541 37,000  Level Montreal Center
Sat 08:02:25 PM 58.5333 -71.3500 13° North 460 529 37,000  Level Montreal Center
Sat 08:03:25 PM 58.6667 -71.3000 11° North 460 529 37,000  Level Montreal Center
Sat 08:04:25 PM 58.7833 -71.2167 20° North 460 529 37,000  Level Montreal Center
Sat 08:05:25 PM 58.9167 -71.1667 11° North 460 529 37,000  Level Montreal Center
Sat 08:06:25 PM 59.0500 -71.1167 11° North 450 518 37,000  Level Montreal Center
Sat 08:07:25 PM 59.1667 -71.0333 20° North 460 529 37,000  Level Montreal Center
Sat 08:08:25 PM 59.3000 -70.9833 11° North 450 518 37,000  Level Montreal Center
Sat 08:09:25 PM 59.4167 -70.9333 12° North 460 529 37,000  Level Montreal Center
Sat 08:10:25 PM 59.5500 -70.8500 18° North 460 529 37,000  Level Montreal Center
Sat 08:11:25 PM 59.6667 -70.8000 12° North 460 529 37,000  Level Montreal Center
Sat 08:12:25 PM 59.8000 -70.7500 11° North 460 529 37,000  Level Montreal Center
Sat 08:13:25 PM 59.9167 -70.6667 20° North 450 518 37,000  Level Montreal Center
Sat 08:14:25 PM 60.0500 -70.6167 11° North 450 518 37,000  Level Montreal Center
Sat 08:15:25 PM 60.1667 -70.5500 16° North 450 518 37,000  Level Montreal Center
Sat 08:16:25 PM 60.2833 -70.4667 19° North 450 518 37,000  Level Montreal Center
Sat 08:17:25 PM 60.4000 -70.4167 12° North 450 518 37,000  Level Montreal Center
Sat 08:18:25 PM 60.5167 -70.3667 12° North 450 518 37,000  Level Montreal Center
Sat 08:19:25 PM 60.6500 -70.3000 14° North 450 518 37,000  Level Montreal Center
Sat 08:20:25 PM 60.7833 -70.2167 17° North 460 529 37,000  Level Montreal Center
Sat 08:21:25 PM 60.9000 -70.1667 12° North 460 529 37,000  Level Montreal Center
Sat 08:22:25 PM 61.0333 -70.0667 20° North 460 529 37,000  Level Montreal Center
Sat 08:23:25 PM 61.1500 -70.0167 12° North 450 518 37,000  Level Montreal Center
Sat 08:24:25 PM 61.2833 -69.9500 14° North 450 518 37,000  Level Montreal Center
Sat 08:25:25 PM 61.4000 -69.8667 19° North 450 518 37,000  Level Montreal Center
Sat 08:26:25 PM 61.5000 -69.8000 18° North 450 518 37,000  Level Montreal Center
Sat 08:27:25 PM 61.6333 -69.7500 10° North 450 518 37,000  Level Montreal Center
Sat 08:28:25 PM 61.7500 -69.6833 15° North 450 518 37,000 -50 Level Montreal Center
Sat 08:29:25 PM 61.8667 -69.5833 22° Northeast 450 518 36,900 -1,000 Descending Montreal Center
Sat 08:30:25 PM 61.9833 -69.5333 11° North 450 518 35,000 -2,200 Descending Montreal Center
Sat 08:31:25 PM 62.1167 -69.4667 13° North 470 541 32,500 -2,550 Descending Montreal Center
Sat 08:32:25 PM 62.2667 -69.3667 17° North 480 552 29,900 -2,500 Descending Montreal Center
Sat 08:33:25 PM 62.4000 -69.3000 13° North 490 564 27,500 -2,400 Descending Montreal Center
Sat 08:34:25 PM 62.5167 -69.2333 15° North 500 575 25,100 -2,350 Descending Montreal Center
Sat 08:35:25 PM 62.6500 -69.1333 19° North 500 575 22,800 -2,350 Descending Montreal Center
Sat 08:36:25 PM 62.7667 -69.0333 21° North 480 552 20,400 -2,350 Descending Montreal Center
Sat 08:37:25 PM 62.8833 -68.9000 28° Northeast 460 529 18,100 -2,550 Descending Montreal Center
Sat 08:38:25 PM 62.9833 -68.8000 24° Northeast 440 506 15,300 -2,650 Descending Montreal Center
Sat 08:39:25 PM 63.1000 -68.6667 27° Northeast 420 483 12,800 -2,450 Descending Montreal Center
Sat 08:40:25 PM 63.2000 -68.5667 24° Northeast 400 460 10,400 -1,500 Descending Montreal Center
Sat 08:41:25 PM 63.2833 -68.4667 28° Northeast 340 391 9,800 -900 Descending Montreal Center
Sat 08:42:25 PM 63.3500 -68.3833 29° Northeast 280 322 8,600 -1,550 Descending Montreal Center
Sat 08:43:25 PM 63.4167 -68.3167 24° Northeast 260 299 6,700 -2,000 Descending Montreal Center
Sat 08:44:25 PM 63.4833 -68.2333 29° Northeast 260 299 4,600 -1,550 Descending Montreal Center
Sat 08:45:25 PM 63.5333 -68.1833 24° Northeast 240 276 3,600 -500 Descending Montreal Center
Sat 08:46:25 PM 63.5833 -68.1333 24° Northeast 200 230 3,600 -450 Level Montreal Center
Sat 08:47:25 PM 63.6333 -68.1500 352° North 200 230 2,700 -750 Descending Montreal Center
Sat 08:48:25 PM 63.6667 -68.2500 307° West 190 219 2,100 -450 Descending Montreal Center
Sat 08:49:25 PM 63.7000 -68.3167 318° Northwest 180 207 1,800 -450 Descending Montreal Center
Sat 08:50:25 PM 63.7333 -68.4000 312° West 160 184 1,200 -650 Descending Montreal Center
Sat 08:51:25 PM 63.7667 -68.4667 319° Northwest 140 161 500 -550 Descending Montreal Center
Sat 08:52:25 PM 63.7833 -68.5000 319° Northwest 130 150 100 -200 Descending Montreal Center
Sat 08:53:25 PM 63.7833 -68.5000 319° Northwest 40 46 100  Level Montreal Center

Login

Don't have an account? Register now (free) for customized features, flight alerts, and more!